Météo Nord-Pas-de-Calais   La météo au plus près de chez vous

Station météorologique

Observations météo à Rancennes (08353)

08353001 162 m Dernier relevé à 14:18
22.1°C
Humidité 55 % Vent 10.1 km/h

Journée consultée

Mardi 1 Septembre 2026

Synthèse de la journée

Périodes de référence en UTC

Température maximale

22.4°C

à 13:54

06h 06h

Température minimale

12.6°C

à 03:12

18h 18h

Rafale maximale

28 km/h

à 11:54

00h 00h

Précipitations

0 mm

Cumul quotidien

06h 06h

Graphiques de la journée

Heure locale Réduire

Données détaillées

Relevés météo

Pas de 6 minutes Afficher les relevés infra-horaires
Relevés météo détaillés à Rancennes pour le Mardi 1 Septembre 2026
Heure Température °C Point de rosée °C Humidité % Vent moyen (raf.), km/h Précipitations mm
14:18 22.1 °C 11.5 °C 51 % 12 km/h (22 km/h) 0 mm0 mm
14:12 22.2 °C 11.3 °C 50 % 13 km/h (23 km/h) 0 mm0 mm
14:06 22.1 °C 11.8 °C 52 % 15 km/h (24 km/h) 0 mm0 mm
14:00 21.9 °C 12.2 °C 54 % 13 km/h (25 km/h) 0 mm0 mm
13:54 22.4 °C 12.6 °C 54 % 10 km/h (24 km/h) 0 mm0 mm
13:48 22 °C 12.3 °C 54 % 13 km/h (22 km/h) 0 mm0 mm
13:42 21.3 °C 12.7 °C 58 % 13 km/h (22 km/h) 0 mm0 mm
13:36 20.5 °C 11.7 °C 57 % 12 km/h (22 km/h) 0 mm0 mm
13:30 20.6 °C 11.5 °C 56 % 9 km/h (18 km/h) 0 mm0 mm
13:24 21.3 °C 12.2 °C 56 % 9 km/h (19 km/h) 0 mm0 mm
13:18 21.6 °C 12.2 °C 55 % 10 km/h (19 km/h) 0 mm0 mm
13:12 21.3 °C 13 °C 59 % 11 km/h (22 km/h) 0 mm0 mm
13:06 20.7 °C 11.9 °C 57 % 12 km/h (22 km/h) 0 mm0 mm
13:00 20.8 °C 12 °C 57 % 11 km/h (19 km/h) 0 mm0 mm
12:54 21.1 °C 12.5 °C 58 % 10 km/h (21 km/h) 0 mm0 mm
12:48 20.8 °C 12.5 °C 59 % 11 km/h (21 km/h) 0 mm0 mm
12:42 20.7 °C 12.4 °C 59 % 12 km/h (21 km/h) 0 mm0 mm
12:36 20.3 °C 11.8 °C 58 % 11 km/h (22 km/h) 0 mm0 mm
12:30 20.7 °C 11.9 °C 57 % 14 km/h (23 km/h) 0 mm0 mm
12:24 20.4 °C 11.6 °C 57 % 14 km/h (23 km/h) 0 mm0 mm
12:18 20.9 °C 12.1 °C 57 % 14 km/h (27 km/h) 0 mm0 mm
12:12 20.6 °C 12 °C 58 % 14 km/h (27 km/h) 0 mm0 mm
12:06 20.3 °C 12.3 °C 60 % 15 km/h (25 km/h) 0 mm0 mm
12:00 19.9 °C 11.9 °C 60 % 16 km/h (28 km/h) 0 mm0 mm
11:54 19.7 °C 12 °C 61 % 14 km/h (28 km/h) 0 mm0 mm
11:48 20.1 °C 12.3 °C 61 % 12 km/h (23 km/h) 0 mm0 mm
11:42 19.7 °C 12.5 °C 63 % 14 km/h (25 km/h) 0 mm0 mm
11:36 20.1 °C 12.3 °C 61 % 13 km/h (25 km/h) 0 mm0 mm
11:30 20.5 °C 13.7 °C 65 % 13 km/h (21 km/h) 0 mm0 mm
11:24 20 °C 13 °C 64 % 14 km/h (22 km/h) 0 mm0 mm
11:18 20 °C 13 °C 64 % 13 km/h (22 km/h) 0 mm0 mm
11:12 20.3 °C 13.3 °C 64 % 12 km/h (27 km/h) 0 mm0 mm
11:06 20 °C 13.2 °C 65 % 12 km/h (24 km/h) 0 mm0 mm
11:00 19.5 °C 13.2 °C 67 % 13 km/h (23 km/h) 0 mm0 mm
10:54 19.1 °C 12.8 °C 67 % 14 km/h (21 km/h) 0 mm0 mm
10:48 19.2 °C 13.1 °C 68 % 12 km/h (21 km/h) 0 mm0 mm
10:42 19.1 °C 13.3 °C 69 % 10 km/h (22 km/h) 0 mm0 mm
10:36 18.6 °C 13 °C 70 % 12 km/h (22 km/h) 0 mm0 mm
10:30 18.8 °C 13.2 °C 70 % 13 km/h (22 km/h) 0 mm0 mm
10:24 18.9 °C 13.5 °C 71 % 12 km/h (22 km/h) 0 mm0 mm
10:18 18.9 °C 13.7 °C 72 % 9 km/h (21 km/h) 0 mm0 mm
10:12 18.7 °C 13.8 °C 73 % 9 km/h (15 km/h) 0 mm0 mm
10:06 18.7 °C 14 °C 74 % 10 km/h (20 km/h) 0 mm0 mm
10:00 18.4 °C 13.9 °C 75 % 13 km/h (20 km/h) 0 mm0 mm
09:54 18.1 °C 13.8 °C 76 % 14 km/h (21 km/h) 0 mm0 mm
09:48 17.8 °C 13.7 °C 77 % 12 km/h (21 km/h) 0 mm0 mm
09:42 17.8 °C 13.9 °C 78 % 11 km/h (19 km/h) 0 mm0 mm
09:36 17.6 °C 13.9 °C 79 % 10 km/h (19 km/h) 0 mm0 mm
09:30 17.4 °C 13.7 °C 79 % 8 km/h (15 km/h) 0 mm0 mm
09:24 17.8 °C 14.1 °C 79 % 7 km/h (13 km/h) 0 mm0 mm
09:18 17.6 °C 14.3 °C 81 % 7 km/h (13 km/h) 0 mm0 mm
09:12 16.8 °C 14.1 °C 84 % 7 km/h (15 km/h) 0 mm0 mm
09:06 16.4 °C 13.9 °C 85 % 7 km/h (14 km/h) 0 mm0 mm
09:00 16.2 °C 13.7 °C 85 % 8 km/h (15 km/h) 0 mm0 mm
08:54 16.1 °C 13.6 °C 85 % 9 km/h (15 km/h) 0 mm0 mm
08:48 16.1 °C 13.8 °C 86 % 8 km/h (14 km/h) 0 mm0 mm
08:42 16 °C 13.7 °C 86 % 10 km/h (18 km/h) 0 mm0 mm
08:36 16 °C 13.7 °C 86 % 9 km/h (16 km/h) 0 mm0 mm
08:30 16 °C 13.7 °C 86 % 8 km/h (14 km/h) 0 mm0 mm
08:24 16 °C 13.7 °C 86 % 7 km/h (14 km/h) 0 mm0 mm
08:18 16 °C 13.8 °C 87 % 5 km/h (13 km/h) 0 mm0 mm
08:12 15.9 °C 13.7 °C 87 % 6 km/h (13 km/h) 0 mm0 mm
08:06 15.8 °C 13.6 °C 87 % 7 km/h (13 km/h) 0 mm0 mm
08:00 15.7 °C 13.5 °C 87 % 8 km/h (14 km/h) 0 mm0 mm
07:54 15.7 °C 13.5 °C 87 % 9 km/h (16 km/h) 0 mm0 mm
07:48 15.6 °C 13.6 °C 88 % 10 km/h (17 km/h) 0 mm0 mm
07:42 15.6 °C 13.6 °C 88 % 9 km/h (17 km/h) 0 mm0 mm
07:36 15.6 °C 13.6 °C 88 % 7 km/h (12 km/h) 0 mm0 mm
07:30 15.5 °C 13.5 °C 88 % 8 km/h (15 km/h) 0 mm0 mm
07:24 15.4 °C 13.6 °C 89 % 8 km/h (15 km/h) 0 mm0 mm
07:18 15.4 °C 13.8 °C 90 % 6 km/h (13 km/h) 0 mm0 mm
07:12 15.3 °C 13.7 °C 90 % 4 km/h (7 km/h) 0 mm0 mm
07:06 15.3 °C 13.7 °C 90 % 3 km/h (5 km/h) 0 mm0 mm
07:00 15.3 °C 13.7 °C 90 % 4 km/h (7 km/h) 0 mm0 mm
06:54 15.4 °C 13.6 °C 89 % 4 km/h (9 km/h) 0 mm0 mm
06:48 15.4 °C 13.6 °C 89 % 5 km/h (12 km/h) 0 mm0 mm
06:42 15.5 °C 13.5 °C 88 % 7 km/h (12 km/h) 0 mm0 mm
06:36 15.4 °C 13.6 °C 89 % 7 km/h (11 km/h) 0 mm0 mm
06:30 15.4 °C 13.6 °C 89 % 6 km/h (11 km/h) 0 mm0 mm
06:24 15.4 °C 13.6 °C 89 % 7 km/h (12 km/h) 0 mm0 mm
06:18 15.3 °C 13.5 °C 89 % 8 km/h (12 km/h) 0 mm0 mm
06:12 15.3 °C 13.7 °C 90 % 8 km/h (12 km/h) 0 mm0 mm
06:06 15.2 °C 13.6 °C 90 % 8 km/h (13 km/h) 0 mm0 mm
06:00 15.1 °C 13.6 °C 91 % 7 km/h (13 km/h) 0 mm0 mm
05:54 15 °C 13.5 °C 91 % 6 km/h (10 km/h) 0 mm0 mm
05:48 14.8 °C 13.5 °C 92 % 4 km/h (8 km/h) 0 mm0 mm
05:42 14.7 °C 13.4 °C 92 % 3 km/h (9 km/h) 0 mm0 mm
05:36 14.7 °C 13.4 °C 92 % 4 km/h (9 km/h) 0 mm0 mm
05:30 14.7 °C 13.4 °C 92 % 5 km/h (9 km/h) 0 mm0 mm
05:24 14.7 °C 13.4 °C 92 % 3 km/h (7 km/h) 0 mm0 mm
05:18 14.7 °C 13.4 °C 92 % 5 km/h (10 km/h) 0 mm0 mm
05:12 14.7 °C 13.4 °C 92 % 6 km/h (10 km/h) 0 mm0 mm
05:06 14.7 °C 13.4 °C 92 % 6 km/h (13 km/h) 0 mm0 mm
05:00 14.7 °C 13.6 °C 93 % 7 km/h (13 km/h) 0 mm0 mm
04:54 14.6 °C 13.6 °C 94 % 8 km/h (13 km/h) 0 mm0 mm
04:48 14.4 °C 13.6 °C 95 % 6 km/h (13 km/h) 0 mm0 mm
04:42 14.3 °C 13.7 °C 96 % 5 km/h (10 km/h) 0 mm0 mm
04:36 14.1 °C 13.5 °C 96 % 6 km/h (12 km/h) 0 mm0 mm
04:30 13.9 °C 13.4 °C 97 % 6 km/h (12 km/h) 0 mm0 mm
04:24 13.6 °C 13.1 °C 97 % 5 km/h (8 km/h) 0 mm0 mm
04:18 13.4 °C 12.9 °C 97 % 5 km/h (7 km/h) 0 mm0 mm
04:12 13.2 °C 12.6 °C 96 % 5 km/h (8 km/h) 0 mm0 mm
04:06 13.1 °C 12.5 °C 96 % 5 km/h (12 km/h) 0 mm0 mm
04:00 12.7 °C 11.9 °C 95 % 4 km/h (7 km/h) 0 mm0 mm
03:54 12.7 °C 11.8 °C 94 % 2 km/h (5 km/h) 0 mm0 mm
03:48 12.8 °C 11.9 °C 94 % 2 km/h (5 km/h) 0 mm0 mm
03:42 13.2 °C 12.3 °C 94 % 3 km/h (8 km/h) 0 mm0 mm
03:36 13.4 °C 12.6 °C 95 % 4 km/h (8 km/h) 0 mm0 mm
03:30 13.6 °C 13 °C 96 % 5 km/h (9 km/h) 0 mm0 mm
03:24 13.3 °C 12.7 °C 96 % 5 km/h (9 km/h) 0 mm0 mm
03:18 13.1 °C 12.3 °C 95 % 5 km/h (9 km/h) 0 mm0 mm
03:12 12.6 °C 11.5 °C 93 % 3 km/h (6 km/h) 0 mm0 mm
03:06 12.7 °C 11.3 °C 91 % 2 km/h (4 km/h) 0 mm0 mm
03:00 13.1 °C 11.7 °C 91 % 2 km/h (4 km/h) 0 mm0 mm
02:54 13.4 °C 11.8 °C 90 % 0 km/h (3 km/h) 0 mm0 mm
02:48 13.8 °C 12.2 °C 90 % 2 km/h (5 km/h) 0 mm0 mm
02:42 14 °C 12.2 °C 89 % 2 km/h (6 km/h) 0 mm0 mm
02:36 14.1 °C 12.5 °C 90 % 3 km/h (7 km/h) 0 mm0 mm
02:30 14.1 °C 12.3 °C 89 % 3 km/h (7 km/h) 0 mm0 mm
02:24 14.1 °C 12.1 °C 88 % 3 km/h (7 km/h) 0 mm0 mm
02:18 14.2 °C 12.2 °C 88 % 5 km/h (9 km/h) 0 mm0 mm
02:12 14.3 °C 12.3 °C 88 % 5 km/h (9 km/h) 0 mm0 mm
02:06 14.3 °C 12.3 °C 88 % 4 km/h (7 km/h) 0 mm0 mm
02:00 14.3 °C 12.3 °C 88 % 4 km/h (10 km/h) 0 mm0 mm
01:54 14.3 °C 12.2 °C 87 % 4 km/h (10 km/h) 0 mm0 mm
01:48 14.4 °C 12.1 °C 86 % 3 km/h (8 km/h) 0 mm0 mm
01:42 14.5 °C 12.2 °C 86 % 3 km/h (8 km/h) 0 mm0 mm
01:36 14.6 °C 12.1 °C 85 % 4 km/h (9 km/h) 0 mm0 mm
01:30 14.7 °C 12.2 °C 85 % 4 km/h (9 km/h) 0 mm0 mm
01:24 14.7 °C 12 °C 84 % 3 km/h (9 km/h) 0 mm0 mm
01:18 14.9 °C 12.2 °C 84 % 4 km/h (10 km/h) 0 mm0 mm
01:12 14.9 °C 12 °C 83 % 4 km/h (8 km/h) 0 mm0 mm
01:06 15 °C 12.1 °C 83 % 4 km/h (8 km/h) 0 mm0 mm
01:00 15.1 °C 12 °C 82 % 4 km/h (9 km/h) 0 mm0 mm
00:54 15.3 °C 12.2 °C 82 % 5 km/h (11 km/h) 0 mm0 mm
00:48 15.4 °C 12.2 °C 81 % 6 km/h (11 km/h) 0 mm0 mm
00:42 15.6 °C 12.2 °C 80 % 8 km/h (14 km/h) 0 mm0 mm
00:36 15.6 °C 12.2 °C 80 % 8 km/h (14 km/h) 0 mm0 mm
00:30 15.6 °C 12.2 °C 80 % 7 km/h (15 km/h) 0 mm0 mm
00:24 15.6 °C 12.2 °C 80 % 7 km/h (15 km/h) 0 mm0 mm
00:18 15.8 °C 12.2 °C 79 % 7 km/h (15 km/h) 0 mm0 mm
00:12 15.8 °C 12.2 °C 79 % 8 km/h (15 km/h) 0 mm0 mm
00:06 15.7 °C 12.1 °C 79 % 6 km/h (14 km/h) 0 mm0 mm
00:00 15.8 °C 12.2 °C 79 % 5 km/h (11 km/h) 0 mm0 mm

Données via Météo-France

Relevés météo à Rancennes

Cette page rassemble les observations de la station de Rancennes : température, humidité, vent, précipitations et pression atmosphérique. Les graphiques facilitent le suivi de la journée, tandis que le tableau donne accès aux mesures horaires et infra-horaires disponibles.

Pour replacer ces mesures dans leur contexte, consultez la climatologie de Rancennes. Retrouvez aussi la carte des observations météo en temps réel.